sensor_id;sensor_type;location;lat;lon;timestamp;temperature;humidity
35497;DHT22;21609;49.298;6.844;2022-09-27T00:00:05;18.70;56.60
35497;DHT22;21609;49.298;6.844;2022-09-27T00:02:31;18.70;57.20
35497;DHT22;21609;49.298;6.844;2022-09-27T00:04:58;18.70;56.60
35497;DHT22;21609;49.298;6.844;2022-09-27T00:07:24;18.70;56.60
35497;DHT22;21609;49.298;6.844;2022-09-27T00:09:50;18.70;56.60
35497;DHT22;21609;49.298;6.844;2022-09-27T00:12:15;18.70;56.60
35497;DHT22;21609;49.298;6.844;2022-09-27T00:14:41;18.70;56.60
35497;DHT22;21609;49.298;6.844;2022-09-27T00:17:06;18.70;56.70
35497;DHT22;21609;49.298;6.844;2022-09-27T00:19:32;18.70;56.60
35497;DHT22;21609;49.298;6.844;2022-09-27T00:21:58;18.70;56.60
35497;DHT22;21609;49.298;6.844;2022-09-27T00:24:28;18.70;56.60
35497;DHT22;21609;49.298;6.844;2022-09-27T00:26:53;18.70;56.60
35497;DHT22;21609;49.298;6.844;2022-09-27T00:29:19;18.70;56.60
35497;DHT22;21609;49.298;6.844;2022-09-27T00:31:46;18.70;56.60
35497;DHT22;21609;49.298;6.844;2022-09-27T00:34:20;18.70;56.60
35497;DHT22;21609;49.298;6.844;2022-09-27T00:36:47;18.60;56.60
35497;DHT22;21609;49.298;6.844;2022-09-27T00:39:14;18.70;56.60
35497;DHT22;21609;49.298;6.844;2022-09-27T00:41:40;18.70;56.60
35497;DHT22;21609;49.298;6.844;2022-09-27T00:47:29;18.60;56.60
35497;DHT22;21609;49.298;6.844;2022-09-27T00:50:00;18.70;56.60
35497;DHT22;21609;49.298;6.844;2022-09-27T00:52:50;18.70;56.60
35497;DHT22;21609;49.298;6.844;2022-09-27T00:55:24;18.70;56.60
35497;DHT22;21609;49.298;6.844;2022-09-27T00:57:52;18.60;56.50
35497;DHT22;21609;49.298;6.844;2022-09-27T01:00:18;18.60;56.50
35497;DHT22;21609;49.298;6.844;2022-09-27T01:02:48;18.70;56.60
35497;DHT22;21609;49.298;6.844;2022-09-27T01:05:16;18.60;56.50
35497;DHT22;21609;49.298;6.844;2022-09-27T01:07:43;18.60;56.50
35497;DHT22;21609;49.298;6.844;2022-09-27T01:10:09;18.70;56.60
35497;DHT22;21609;49.298;6.844;2022-09-27T01:15:24;18.60;56.50
35497;DHT22;21609;49.298;6.844;2022-09-27T01:26:21;18.60;56.50
35497;DHT22;21609;49.298;6.844;2022-09-27T01:29:15;18.60;56.50
35497;DHT22;21609;49.298;6.844;2022-09-27T01:34:20;18.60;56.50
35497;DHT22;21609;49.298;6.844;2022-09-27T01:47:46;18.60;56.50
35497;DHT22;21609;49.298;6.844;2022-09-27T01:50:18;18.60;56.50
35497;DHT22;21609;49.298;6.844;2022-09-27T01:52:50;18.60;57.10
35497;DHT22;21609;49.298;6.844;2022-09-27T01:55:19;18.60;56.50
35497;DHT22;21609;49.298;6.844;2022-09-27T01:57:54;18.60;56.50
35497;DHT22;21609;49.298;6.844;2022-09-27T02:00:21;18.60;56.50
35497;DHT22;21609;49.298;6.844;2022-09-27T02:02:51;18.60;56.50
35497;DHT22;21609;49.298;6.844;2022-09-27T02:05:20;18.60;57.10
35497;DHT22;21609;49.298;6.844;2022-09-27T02:07:58;18.60;56.50
35497;DHT22;21609;49.298;6.844;2022-09-27T02:10:29;18.60;56.50
35497;DHT22;21609;49.298;6.844;2022-09-27T02:13:03;18.60;56.50
35497;DHT22;21609;49.298;6.844;2022-09-27T02:15:37;18.60;56.50
35497;DHT22;21609;49.298;6.844;2022-09-27T02:18:14;18.60;56.50
35497;DHT22;21609;49.298;6.844;2022-09-27T02:20:48;18.60;56.50
35497;DHT22;21609;49.298;6.844;2022-09-27T02:23:25;18.60;56.50
35497;DHT22;21609;49.298;6.844;2022-09-27T02:26:08;18.60;56.50
35497;DHT22;21609;49.298;6.844;2022-09-27T02:31:20;18.60;56.50
35497;DHT22;21609;49.298;6.844;2022-09-27T02:33:53;18.50;56.40
35497;DHT22;21609;49.298;6.844;2022-09-27T02:36:21;18.60;56.50
35497;DHT22;21609;49.298;6.844;2022-09-27T02:38:47;18.60;56.50
35497;DHT22;21609;49.298;6.844;2022-09-27T02:41:18;18.60;56.50
35497;DHT22;21609;49.298;6.844;2022-09-27T02:43:47;18.50;56.50
35497;DHT22;21609;49.298;6.844;2022-09-27T02:46:25;18.50;56.50
35497;DHT22;21609;49.298;6.844;2022-09-27T02:49:12;18.50;56.40
35497;DHT22;21609;49.298;6.844;2022-09-27T02:52:08;18.50;56.50
35497;DHT22;21609;49.298;6.844;2022-09-27T03:00:20;18.50;56.40
35497;DHT22;21609;49.298;6.844;2022-09-27T03:03:20;18.50;56.40
35497;DHT22;21609;49.298;6.844;2022-09-27T03:05:51;18.50;56.40
35497;DHT22;21609;49.298;6.844;2022-09-27T03:08:18;18.50;56.40
35497;DHT22;21609;49.298;6.844;2022-09-27T03:10:44;18.50;56.40
35497;DHT22;21609;49.298;6.844;2022-09-27T03:13:10;18.50;56.50
35497;DHT22;21609;49.298;6.844;2022-09-27T03:15:36;18.50;56.40
35497;DHT22;21609;49.298;6.844;2022-09-27T03:18:02;18.50;56.40
35497;DHT22;21609;49.298;6.844;2022-09-27T03:20:27;18.50;56.40
35497;DHT22;21609;49.298;6.844;2022-09-27T03:22:53;18.50;56.40
35497;DHT22;21609;49.298;6.844;2022-09-27T03:25:20;18.50;56.40
35497;DHT22;21609;49.298;6.844;2022-09-27T03:27:47;18.50;56.40
35497;DHT22;21609;49.298;6.844;2022-09-27T03:30:13;18.50;56.40
35497;DHT22;21609;49.298;6.844;2022-09-27T03:32:45;18.50;56.40
35497;DHT22;21609;49.298;6.844;2022-09-27T03:35:12;18.50;56.40
35497;DHT22;21609;49.298;6.844;2022-09-27T03:37:38;18.50;56.40
35497;DHT22;21609;49.298;6.844;2022-09-27T03:40:05;18.50;56.40
35497;DHT22;21609;49.298;6.844;2022-09-27T03:42:31;18.50;56.40
35497;DHT22;21609;49.298;6.844;2022-09-27T03:44:57;18.50;57.00
35497;DHT22;21609;49.298;6.844;2022-09-27T03:47:22;18.50;56.40
35497;DHT22;21609;49.298;6.844;2022-09-27T03:49:48;18.50;56.40
35497;DHT22;21609;49.298;6.844;2022-09-27T03:52:14;18.50;56.40
35497;DHT22;21609;49.298;6.844;2022-09-27T03:54:40;18.50;56.40
35497;DHT22;21609;49.298;6.844;2022-09-27T03:57:07;18.40;56.30
35497;DHT22;21609;49.298;6.844;2022-09-27T03:59:32;18.50;56.40
35497;DHT22;21609;49.298;6.844;2022-09-27T04:01:58;18.40;56.30
35497;DHT22;21609;49.298;6.844;2022-09-27T04:04:23;18.40;56.40
35497;DHT22;21609;49.298;6.844;2022-09-27T04:06:49;18.50;56.40
35497;DHT22;21609;49.298;6.844;2022-09-27T04:09:15;18.50;56.40
35497;DHT22;21609;49.298;6.844;2022-09-27T04:11:41;18.50;56.40
35497;DHT22;21609;49.298;6.844;2022-09-27T04:14:07;18.50;56.40
35497;DHT22;21609;49.298;6.844;2022-09-27T04:16:33;18.50;56.40
35497;DHT22;21609;49.298;6.844;2022-09-27T04:18:59;18.40;56.30
35497;DHT22;21609;49.298;6.844;2022-09-27T04:21:26;18.40;56.30
35497;DHT22;21609;49.298;6.844;2022-09-27T04:23:52;18.40;56.40
35497;DHT22;21609;49.298;6.844;2022-09-27T04:26:17;18.40;56.30
35497;DHT22;21609;49.298;6.844;2022-09-27T04:28:43;18.40;56.30
35497;DHT22;21609;49.298;6.844;2022-09-27T04:31:08;18.40;56.30
35497;DHT22;21609;49.298;6.844;2022-09-27T04:33:34;18.40;56.30
35497;DHT22;21609;49.298;6.844;2022-09-27T04:35:59;18.40;56.30
35497;DHT22;21609;49.298;6.844;2022-09-27T04:38:43;18.40;56.30
35497;DHT22;21609;49.298;6.844;2022-09-27T04:41:09;18.40;56.30
35497;DHT22;21609;49.298;6.844;2022-09-27T04:43:35;18.40;56.30
35497;DHT22;21609;49.298;6.844;2022-09-27T04:46:00;18.40;56.30
35497;DHT22;21609;49.298;6.844;2022-09-27T04:48:26;18.40;56.30
35497;DHT22;21609;49.298;6.844;2022-09-27T04:50:56;18.40;56.30
35497;DHT22;21609;49.298;6.844;2022-09-27T04:53:22;18.40;56.30
35497;DHT22;21609;49.298;6.844;2022-09-27T04:55:48;18.40;56.30
35497;DHT22;21609;49.298;6.844;2022-09-27T04:58:14;18.40;56.40
35497;DHT22;21609;49.298;6.844;2022-09-27T05:00:40;18.40;56.30
35497;DHT22;21609;49.298;6.844;2022-09-27T05:03:07;18.40;56.30
35497;DHT22;21609;49.298;6.844;2022-09-27T05:05:33;18.40;56.30
35497;DHT22;21609;49.298;6.844;2022-09-27T05:07:58;18.40;56.30
35497;DHT22;21609;49.298;6.844;2022-09-27T05:10:24;18.40;56.30
35497;DHT22;21609;49.298;6.844;2022-09-27T05:12:50;18.40;56.30
35497;DHT22;21609;49.298;6.844;2022-09-27T05:15:15;18.40;56.30
35497;DHT22;21609;49.298;6.844;2022-09-27T05:17:41;18.40;56.30
35497;DHT22;21609;49.298;6.844;2022-09-27T05:20:07;18.30;56.00
35497;DHT22;21609;49.298;6.844;2022-09-27T05:22:34;18.30;56.30
35497;DHT22;21609;49.298;6.844;2022-09-27T05:24:59;18.40;56.40
35497;DHT22;21609;49.298;6.844;2022-09-27T05:27:25;18.40;56.30
35497;DHT22;21609;49.298;6.844;2022-09-27T05:29:50;18.40;56.40
35497;DHT22;21609;49.298;6.844;2022-09-27T05:32:16;18.30;56.30
35497;DHT22;21609;49.298;6.844;2022-09-27T05:34:41;18.30;56.40
35497;DHT22;21609;49.298;6.844;2022-09-27T05:37:07;18.40;56.30
35497;DHT22;21609;49.298;6.844;2022-09-27T05:39:33;18.30;56.30
35497;DHT22;21609;49.298;6.844;2022-09-27T05:41:59;18.30;56.30
35497;DHT22;21609;49.298;6.844;2022-09-27T05:44:24;18.40;56.40
35497;DHT22;21609;49.298;6.844;2022-09-27T05:46:53;18.30;56.30
35497;DHT22;21609;49.298;6.844;2022-09-27T05:49:18;18.40;56.30
35497;DHT22;21609;49.298;6.844;2022-09-27T05:51:44;18.40;56.30
35497;DHT22;21609;49.298;6.844;2022-09-27T05:54:10;18.30;56.40
35497;DHT22;21609;49.298;6.844;2022-09-27T05:56:36;18.30;56.60
35497;DHT22;21609;49.298;6.844;2022-09-27T05:59:01;18.40;56.60
35497;DHT22;21609;49.298;6.844;2022-09-27T06:01:27;18.30;56.60
35497;DHT22;21609;49.298;6.844;2022-09-27T06:03:53;18.30;56.60
35497;DHT22;21609;49.298;6.844;2022-09-27T06:06:19;18.40;56.60
35497;DHT22;21609;49.298;6.844;2022-09-27T06:08:46;18.30;56.60
35497;DHT22;21609;49.298;6.844;2022-09-27T06:11:12;18.40;56.60
35497;DHT22;21609;49.298;6.844;2022-09-27T06:13:38;18.40;56.70
35497;DHT22;21609;49.298;6.844;2022-09-27T06:16:05;18.40;56.70
35497;DHT22;21609;49.298;6.844;2022-09-27T06:18:31;18.30;56.70
35497;DHT22;21609;49.298;6.844;2022-09-27T06:21:01;18.30;56.80
35497;DHT22;21609;49.298;6.844;2022-09-27T06:23:27;18.30;56.80
35497;DHT22;21609;49.298;6.844;2022-09-27T06:25:53;18.30;56.80
35497;DHT22;21609;49.298;6.844;2022-09-27T06:28:20;18.30;56.80
35497;DHT22;21609;49.298;6.844;2022-09-27T06:30:47;18.30;56.80
35497;DHT22;21609;49.298;6.844;2022-09-27T06:33:18;18.30;56.80
35497;DHT22;21609;49.298;6.844;2022-09-27T06:35:45;18.30;56.80
35497;DHT22;21609;49.298;6.844;2022-09-27T06:38:12;18.30;56.80
35497;DHT22;21609;49.298;6.844;2022-09-27T06:40:38;18.30;56.80
35497;DHT22;21609;49.298;6.844;2022-09-27T06:43:08;18.30;56.80
35497;DHT22;21609;49.298;6.844;2022-09-27T06:45:35;18.30;56.70
35497;DHT22;21609;49.298;6.844;2022-09-27T06:48:04;18.30;56.80
35497;DHT22;21609;49.298;6.844;2022-09-27T06:50:34;18.30;56.70
35497;DHT22;21609;49.298;6.844;2022-09-27T06:53:00;18.30;56.80
35497;DHT22;21609;49.298;6.844;2022-09-27T06:55:26;18.30;56.80
35497;DHT22;21609;49.298;6.844;2022-09-27T06:57:59;18.30;56.80
35497;DHT22;21609;49.298;6.844;2022-09-27T07:00:43;18.30;56.70
35497;DHT22;21609;49.298;6.844;2022-09-27T07:03:12;18.30;56.80
35497;DHT22;21609;49.298;6.844;2022-09-27T07:05:39;18.30;56.80
35497;DHT22;21609;49.298;6.844;2022-09-27T07:08:08;18.30;56.70
35497;DHT22;21609;49.298;6.844;2022-09-27T07:10:35;18.30;56.80
35497;DHT22;21609;49.298;6.844;2022-09-27T07:13:09;18.30;56.80
35497;DHT22;21609;49.298;6.844;2022-09-27T07:15:36;18.30;56.70
35497;DHT22;21609;49.298;6.844;2022-09-27T07:18:04;18.30;56.70
35497;DHT22;21609;49.298;6.844;2022-09-27T07:20:30;18.30;56.70
35497;DHT22;21609;49.298;6.844;2022-09-27T07:22:56;18.30;56.80
35497;DHT22;21609;49.298;6.844;2022-09-27T07:25:23;18.30;56.70
35497;DHT22;21609;49.298;6.844;2022-09-27T07:27:49;18.30;56.70
35497;DHT22;21609;49.298;6.844;2022-09-27T07:30:17;18.30;56.70
35497;DHT22;21609;49.298;6.844;2022-09-27T07:32:44;18.30;56.70
35497;DHT22;21609;49.298;6.844;2022-09-27T07:35:10;18.30;56.70
35497;DHT22;21609;49.298;6.844;2022-09-27T07:37:36;18.30;56.70
35497;DHT22;21609;49.298;6.844;2022-09-27T07:40:04;18.20;56.70
35497;DHT22;21609;49.298;6.844;2022-09-27T07:42:34;18.30;56.70
35497;DHT22;21609;49.298;6.844;2022-09-27T07:45:04;18.30;56.80
35497;DHT22;21609;49.298;6.844;2022-09-27T07:47:30;18.30;56.80
35497;DHT22;21609;49.298;6.844;2022-09-27T07:49:56;18.30;56.70
35497;DHT22;21609;49.298;6.844;2022-09-27T07:52:21;18.20;56.70
35497;DHT22;21609;49.298;6.844;2022-09-27T07:54:48;18.30;56.80
35497;DHT22;21609;49.298;6.844;2022-09-27T07:57:14;18.30;56.90
35497;DHT22;21609;49.298;6.844;2022-09-27T07:59:40;18.20;56.90
35497;DHT22;21609;49.298;6.844;2022-09-27T08:02:09;18.30;57.00
35497;DHT22;21609;49.298;6.844;2022-09-27T08:04:37;18.30;57.10
35497;DHT22;21609;49.298;6.844;2022-09-27T08:07:03;18.30;57.70
35497;DHT22;21609;49.298;6.844;2022-09-27T08:09:28;18.30;57.20
35497;DHT22;21609;49.298;6.844;2022-09-27T08:11:56;18.30;57.30
35497;DHT22;21609;49.298;6.844;2022-09-27T08:14:22;18.30;57.40
35497;DHT22;21609;49.298;6.844;2022-09-27T08:16:52;18.20;57.40
35497;DHT22;21609;49.298;6.844;2022-09-27T08:19:17;18.30;57.60
35497;DHT22;21609;49.298;6.844;2022-09-27T08:21:44;18.30;57.70
35497;DHT22;21609;49.298;6.844;2022-09-27T08:24:09;18.30;57.60
35497;DHT22;21609;49.298;6.844;2022-09-27T08:26:35;18.20;57.60
35497;DHT22;21609;49.298;6.844;2022-09-27T08:29:01;18.20;57.60
35497;DHT22;21609;49.298;6.844;2022-09-27T08:31:26;18.20;57.60
35497;DHT22;21609;49.298;6.844;2022-09-27T08:33:52;18.20;57.60
35497;DHT22;21609;49.298;6.844;2022-09-27T08:36:18;18.30;57.70
35497;DHT22;21609;49.298;6.844;2022-09-27T08:38:48;18.20;57.70
35497;DHT22;21609;49.298;6.844;2022-09-27T08:47:26;18.30;57.70
35497;DHT22;21609;49.298;6.844;2022-09-27T08:50:08;18.30;57.90
35497;DHT22;21609;49.298;6.844;2022-09-27T08:52:54;18.30;57.90
35497;DHT22;21609;49.298;6.844;2022-09-27T08:58:08;18.20;57.90
35497;DHT22;21609;49.298;6.844;2022-09-27T09:00:36;18.20;57.90
35497;DHT22;21609;49.298;6.844;2022-09-27T09:03:02;18.20;58.00
35497;DHT22;21609;49.298;6.844;2022-09-27T09:05:33;18.20;58.00
35497;DHT22;21609;49.298;6.844;2022-09-27T09:08:18;18.20;58.10
35497;DHT22;21609;49.298;6.844;2022-09-27T09:10:54;18.30;58.20
35497;DHT22;21609;49.298;6.844;2022-09-27T09:17:14;18.20;58.20
35497;DHT22;21609;49.298;6.844;2022-09-27T09:25:40;18.20;58.20
35497;DHT22;21609;49.298;6.844;2022-09-27T09:38:46;18.20;58.30
35497;DHT22;21609;49.298;6.844;2022-09-27T09:41:29;18.20;58.30
35497;DHT22;21609;49.298;6.844;2022-09-27T09:44:03;18.20;58.30
35497;DHT22;21609;49.298;6.844;2022-09-27T09:46:39;18.20;58.40
35497;DHT22;21609;49.298;6.844;2022-09-27T09:49:28;18.20;58.30
35497;DHT22;21609;49.298;6.844;2022-09-27T09:51:59;18.20;58.40
35497;DHT22;21609;49.298;6.844;2022-09-27T09:54:32;18.20;58.40
35497;DHT22;21609;49.298;6.844;2022-09-27T09:57:18;18.20;58.40
35497;DHT22;21609;49.298;6.844;2022-09-27T09:59:51;18.20;58.40
35497;DHT22;21609;49.298;6.844;2022-09-27T10:02:37;18.20;58.40
35497;DHT22;21609;49.298;6.844;2022-09-27T10:05:04;18.20;58.40
35497;DHT22;21609;49.298;6.844;2022-09-27T10:07:32;18.20;58.50
35497;DHT22;21609;49.298;6.844;2022-09-27T10:10:03;18.20;58.40
35497;DHT22;21609;49.298;6.844;2022-09-27T10:12:29;18.20;58.50
35497;DHT22;21609;49.298;6.844;2022-09-27T10:14:59;18.20;58.50
35497;DHT22;21609;49.298;6.844;2022-09-27T10:17:27;18.20;58.50
35497;DHT22;21609;49.298;6.844;2022-09-27T10:19:58;18.20;58.60
35497;DHT22;21609;49.298;6.844;2022-09-27T10:22:43;18.20;58.50
35497;DHT22;21609;49.298;6.844;2022-09-27T10:25:10;18.20;58.50
35497;DHT22;21609;49.298;6.844;2022-09-27T10:27:42;18.20;58.70
35497;DHT22;21609;49.298;6.844;2022-09-27T10:30:32;18.20;59.10
35497;DHT22;21609;49.298;6.844;2022-09-27T10:33:16;18.20;59.60
35497;DHT22;21609;49.298;6.844;2022-09-27T10:35:45;18.30;60.00
35497;DHT22;21609;49.298;6.844;2022-09-27T10:40:42;18.30;60.10
35497;DHT22;21609;49.298;6.844;2022-09-27T10:43:30;18.20;60.10
35497;DHT22;21609;49.298;6.844;2022-09-27T10:46:01;18.30;60.20
35497;DHT22;21609;49.298;6.844;2022-09-27T10:48:27;18.30;60.00
35497;DHT22;21609;49.298;6.844;2022-09-27T10:51:23;18.30;60.00
35497;DHT22;21609;49.298;6.844;2022-09-27T10:53:49;18.30;60.20
35497;DHT22;21609;49.298;6.844;2022-09-27T10:56:21;18.30;60.20
35497;DHT22;21609;49.298;6.844;2022-09-27T10:58:48;18.30;60.30
35497;DHT22;21609;49.298;6.844;2022-09-27T11:01:14;18.30;60.50
35497;DHT22;21609;49.298;6.844;2022-09-27T11:03:49;18.30;60.80
35497;DHT22;21609;49.298;6.844;2022-09-27T11:06:29;18.30;60.80
35497;DHT22;21609;49.298;6.844;2022-09-27T11:09:10;18.30;60.70
35497;DHT22;21609;49.298;6.844;2022-09-27T11:11:39;18.30;60.60
35497;DHT22;21609;49.298;6.844;2022-09-27T11:17:12;18.30;60.50
35497;DHT22;21609;49.298;6.844;2022-09-27T11:19:54;18.30;60.50
35497;DHT22;21609;49.298;6.844;2022-09-27T11:28:26;18.30;60.20
35497;DHT22;21609;49.298;6.844;2022-09-27T11:31:04;18.30;60.10
35497;DHT22;21609;49.298;6.844;2022-09-27T11:40:21;18.30;60.20
35497;DHT22;21609;49.298;6.844;2022-09-27T11:43:08;18.30;60.50
35497;DHT22;21609;49.298;6.844;2022-09-27T11:48:44;18.30;60.70
35497;DHT22;21609;49.298;6.844;2022-09-27T11:51:36;18.30;60.70
35497;DHT22;21609;49.298;6.844;2022-09-27T12:00:26;18.30;60.80
35497;DHT22;21609;49.298;6.844;2022-09-27T12:11:30;18.40;61.90
35497;DHT22;21609;49.298;6.844;2022-09-27T12:14:08;18.40;62.40
35497;DHT22;21609;49.298;6.844;2022-09-27T12:16:39;18.50;63.20
35497;DHT22;21609;49.298;6.844;2022-09-27T12:19:16;18.50;63.10
35497;DHT22;21609;49.298;6.844;2022-09-27T12:21:43;18.60;63.20
35497;DHT22;21609;49.298;6.844;2022-09-27T12:24:18;18.60;63.10
35497;DHT22;21609;49.298;6.844;2022-09-27T12:26:52;18.70;63.20
35497;DHT22;21609;49.298;6.844;2022-09-27T12:29:24;18.80;63.10
35497;DHT22;21609;49.298;6.844;2022-09-27T12:34:53;18.90;62.70
35497;DHT22;21609;49.298;6.844;2022-09-27T12:37:48;18.90;62.50
35497;DHT22;21609;49.298;6.844;2022-09-27T12:45:20;18.70;62.10
35497;DHT22;21609;49.298;6.844;2022-09-27T12:48:01;18.70;62.10
35497;DHT22;21609;49.298;6.844;2022-09-27T13:02:47;18.60;61.90
35497;DHT22;21609;49.298;6.844;2022-09-27T13:13:03;18.70;63.20
35497;DHT22;21609;49.298;6.844;2022-09-27T13:15:36;18.70;63.10
35497;DHT22;21609;49.298;6.844;2022-09-27T13:18:06;18.70;63.10
35497;DHT22;21609;49.298;6.844;2022-09-27T13:20:51;18.70;62.90
35497;DHT22;21609;49.298;6.844;2022-09-27T13:25:47;18.70;62.90
35497;DHT22;21609;49.298;6.844;2022-09-27T13:31:05;18.70;62.90
35497;DHT22;21609;49.298;6.844;2022-09-27T13:46:47;18.70;62.50
35497;DHT22;21609;49.298;6.844;2022-09-27T13:49:30;18.70;62.30
35497;DHT22;21609;49.298;6.844;2022-09-27T13:52:31;18.60;62.20
35497;DHT22;21609;49.298;6.844;2022-09-27T13:55:00;18.70;62.10
35497;DHT22;21609;49.298;6.844;2022-09-27T13:57:50;18.70;62.00
35497;DHT22;21609;49.298;6.844;2022-09-27T14:00:22;18.70;62.00
35497;DHT22;21609;49.298;6.844;2022-09-27T14:02:58;18.70;61.90
35497;DHT22;21609;49.298;6.844;2022-09-27T14:05:39;18.70;61.90
35497;DHT22;21609;49.298;6.844;2022-09-27T14:08:18;18.70;61.90
35497;DHT22;21609;49.298;6.844;2022-09-27T14:10:45;18.70;61.80
35497;DHT22;21609;49.298;6.844;2022-09-27T14:13:17;18.70;61.90
35497;DHT22;21609;49.298;6.844;2022-09-27T14:15:44;18.80;62.00
35497;DHT22;21609;49.298;6.844;2022-09-27T14:18:11;18.80;62.20
35497;DHT22;21609;49.298;6.844;2022-09-27T14:20:44;18.80;61.90
35497;DHT22;21609;49.298;6.844;2022-09-27T14:23:22;18.90;61.90
35497;DHT22;21609;49.298;6.844;2022-09-27T14:25:49;18.90;61.80
35497;DHT22;21609;49.298;6.844;2022-09-27T14:30:44;18.90;61.60
35497;DHT22;21609;49.298;6.844;2022-09-27T14:33:32;18.90;61.50
35497;DHT22;21609;49.298;6.844;2022-09-27T14:35:59;18.90;61.40
35497;DHT22;21609;49.298;6.844;2022-09-27T14:38:44;18.90;61.20
35497;DHT22;21609;49.298;6.844;2022-09-27T14:41:12;18.90;61.10
35497;DHT22;21609;49.298;6.844;2022-09-27T14:43:45;18.90;61.00
35497;DHT22;21609;49.298;6.844;2022-09-27T14:46:30;18.90;60.90
35497;DHT22;21609;49.298;6.844;2022-09-27T14:48:56;19.00;60.90
35497;DHT22;21609;49.298;6.844;2022-09-27T14:51:29;19.00;61.70
35497;DHT22;21609;49.298;6.844;2022-09-27T14:53:57;19.00;60.90
35497;DHT22;21609;49.298;6.844;2022-09-27T14:56:26;19.00;60.90
35497;DHT22;21609;49.298;6.844;2022-09-27T14:58:57;19.00;60.90
35497;DHT22;21609;49.298;6.844;2022-09-27T15:01:27;19.00;60.90
35497;DHT22;21609;49.298;6.844;2022-09-27T15:03:55;19.00;60.70
35497;DHT22;21609;49.298;6.844;2022-09-27T15:06:21;19.00;60.60
35497;DHT22;21609;49.298;6.844;2022-09-27T15:08:48;19.00;60.50
35497;DHT22;21609;49.298;6.844;2022-09-27T15:11:18;19.00;60.40
35497;DHT22;21609;49.298;6.844;2022-09-27T15:13:45;19.00;60.30
35497;DHT22;21609;49.298;6.844;2022-09-27T15:16:17;19.00;60.20
35497;DHT22;21609;49.298;6.844;2022-09-27T15:18:49;19.00;60.20
35497;DHT22;21609;49.298;6.844;2022-09-27T15:23:54;19.00;60.10
35497;DHT22;21609;49.298;6.844;2022-09-27T15:26:26;19.00;60.10
35497;DHT22;21609;49.298;6.844;2022-09-27T15:29:00;19.00;60.00
35497;DHT22;21609;49.298;6.844;2022-09-27T15:31:30;19.00;60.00
35497;DHT22;21609;49.298;6.844;2022-09-27T15:33:57;19.00;60.00
35497;DHT22;21609;49.298;6.844;2022-09-27T15:39:17;19.00;59.90
35497;DHT22;21609;49.298;6.844;2022-09-27T15:44:56;19.00;59.90
35497;DHT22;21609;49.298;6.844;2022-09-27T15:52:57;19.00;59.80
35497;DHT22;21609;49.298;6.844;2022-09-27T15:55:25;19.00;59.80
35497;DHT22;21609;49.298;6.844;2022-09-27T15:57:57;19.00;59.80
35497;DHT22;21609;49.298;6.844;2022-09-27T16:00:24;19.00;59.80
35497;DHT22;21609;49.298;6.844;2022-09-27T16:02:51;19.00;59.70
35497;DHT22;21609;49.298;6.844;2022-09-27T16:05:17;19.00;59.70
35497;DHT22;21609;49.298;6.844;2022-09-27T16:07:42;19.00;59.70
35497;DHT22;21609;49.298;6.844;2022-09-27T16:10:16;19.00;59.60
35497;DHT22;21609;49.298;6.844;2022-09-27T16:12:41;19.00;59.60
35497;DHT22;21609;49.298;6.844;2022-09-27T16:15:12;18.90;59.60
35497;DHT22;21609;49.298;6.844;2022-09-27T16:17:38;19.00;59.60
35497;DHT22;21609;49.298;6.844;2022-09-27T16:20:25;19.00;59.60
35497;DHT22;21609;49.298;6.844;2022-09-27T16:22:55;19.00;59.60
35497;DHT22;21609;49.298;6.844;2022-09-27T16:25:21;19.00;59.60
35497;DHT22;21609;49.298;6.844;2022-09-27T16:27:47;18.90;59.50
35497;DHT22;21609;49.298;6.844;2022-09-27T16:30:14;18.90;59.50
35497;DHT22;21609;49.298;6.844;2022-09-27T16:32:43;19.00;59.50
35497;DHT22;21609;49.298;6.844;2022-09-27T16:35:10;18.90;59.50
35497;DHT22;21609;49.298;6.844;2022-09-27T16:37:36;19.00;59.50
35497;DHT22;21609;49.298;6.844;2022-09-27T16:40:07;18.90;59.50
35497;DHT22;21609;49.298;6.844;2022-09-27T16:42:33;18.90;59.50
35497;DHT22;21609;49.298;6.844;2022-09-27T16:44:59;19.00;59.50
35497;DHT22;21609;49.298;6.844;2022-09-27T16:47:26;18.90;59.50
35497;DHT22;21609;49.298;6.844;2022-09-27T16:49:52;19.00;59.50
35497;DHT22;21609;49.298;6.844;2022-09-27T16:52:36;18.90;59.40
35497;DHT22;21609;49.298;6.844;2022-09-27T16:55:02;18.90;59.40
35497;DHT22;21609;49.298;6.844;2022-09-27T16:57:27;19.00;59.40
35497;DHT22;21609;49.298;6.844;2022-09-27T16:59:53;19.00;59.40
35497;DHT22;21609;49.298;6.844;2022-09-27T17:02:22;18.90;59.80
35497;DHT22;21609;49.298;6.844;2022-09-27T17:04:51;19.00;59.50
35497;DHT22;21609;49.298;6.844;2022-09-27T17:07:18;18.90;59.50
35497;DHT22;21609;49.298;6.844;2022-09-27T17:09:43;18.90;59.50
35497;DHT22;21609;49.298;6.844;2022-09-27T17:12:09;19.00;59.60
35497;DHT22;21609;49.298;6.844;2022-09-27T17:14:35;18.90;59.60
35497;DHT22;21609;49.298;6.844;2022-09-27T17:17:01;19.00;59.60
35497;DHT22;21609;49.298;6.844;2022-09-27T17:19:27;18.90;59.60
35497;DHT22;21609;49.298;6.844;2022-09-27T17:21:53;19.00;59.80
35497;DHT22;21609;49.298;6.844;2022-09-27T17:24:20;18.90;59.70
35497;DHT22;21609;49.298;6.844;2022-09-27T17:26:46;18.90;59.70
35497;DHT22;21609;49.298;6.844;2022-09-27T17:29:12;18.90;59.70
35497;DHT22;21609;49.298;6.844;2022-09-27T17:31:39;18.90;59.80
35497;DHT22;21609;49.298;6.844;2022-09-27T17:34:06;19.00;59.80
35497;DHT22;21609;49.298;6.844;2022-09-27T17:36:32;18.90;59.70
35497;DHT22;21609;49.298;6.844;2022-09-27T17:38:59;18.90;59.60
35497;DHT22;21609;49.298;6.844;2022-09-27T17:41:26;18.90;59.60
35497;DHT22;21609;49.298;6.844;2022-09-27T17:43:57;18.90;59.60
35497;DHT22;21609;49.298;6.844;2022-09-27T17:46:24;18.90;59.60
35497;DHT22;21609;49.298;6.844;2022-09-27T17:48:50;18.90;59.60
35497;DHT22;21609;49.298;6.844;2022-09-27T17:51:36;18.90;59.70
35497;DHT22;21609;49.298;6.844;2022-09-27T17:54:02;18.90;59.60
35497;DHT22;21609;49.298;6.844;2022-09-27T17:56:29;18.90;59.60
35497;DHT22;21609;49.298;6.844;2022-09-27T17:58:57;18.90;59.60
35497;DHT22;21609;49.298;6.844;2022-09-27T18:01:23;18.90;59.70
35497;DHT22;21609;49.298;6.844;2022-09-27T18:03:54;18.90;59.70
35497;DHT22;21609;49.298;6.844;2022-09-27T18:06:20;18.90;59.70
35497;DHT22;21609;49.298;6.844;2022-09-27T18:08:45;19.00;59.80
35497;DHT22;21609;49.298;6.844;2022-09-27T18:11:13;18.90;59.70
35497;DHT22;21609;49.298;6.844;2022-09-27T18:13:39;18.90;59.70
35497;DHT22;21609;49.298;6.844;2022-09-27T18:16:11;18.90;59.70
35497;DHT22;21609;49.298;6.844;2022-09-27T18:18:39;18.90;59.70
35497;DHT22;21609;49.298;6.844;2022-09-27T18:21:10;18.90;59.80
35497;DHT22;21609;49.298;6.844;2022-09-27T18:23:39;18.90;59.80
35497;DHT22;21609;49.298;6.844;2022-09-27T18:26:04;18.90;59.80
35497;DHT22;21609;49.298;6.844;2022-09-27T18:28:35;18.90;59.70
35497;DHT22;21609;49.298;6.844;2022-09-27T18:31:21;18.90;59.70